Aviation Digital Data Service (ADDS)

Output produced by METARs form (1849 UTC 19 April 2019)
found at http://www.aviationweather.gov/metar/data/
 
METAR text: OLBA 191800Z 17007KT 8000 SCT030 15/09 Q1017 NOSIG
Conditions at: OLBA (BEIRUT (CIV/MIL), LB) observed 1800 UTC 19 April 2019
Temperature: 15.0°C (59°F)
Dewpoint: 9.0°C (48°F) [RH = 67%]
Pressure (altimeter): 30.03 inches Hg (1017.0 mb)
Winds: from the S (170 degrees) at 8 MPH (7 knots; 3.6 m/s)
Visibility: 5 miles ( 8 km)
Ceiling: at least 12,000 feet AGL
Clouds: scattered clouds at 3000 feet AGL
Weather: no significant weather observed at this time

METAR text: OLBA 191700Z 16006KT 140V210 9999 SCT030 16/08 Q1016 NOSIG
Conditions at: OLBA (BEIRUT (CIV/MIL), LB) observed 1700 UTC 19 April 2019
Temperature: 16.0°C (61°F)
Dewpoint: 8.0°C (46°F) [RH = 59%]
Pressure (altimeter): 30.00 inches Hg (1016.0 mb)
Winds: from the SSE (160 degrees) at 7 MPH (6 knots; 3.1 m/s)
Visibility: 6 or more miles (10+ km)
Ceiling: at least 12,000 feet AGL
Clouds: scattered clouds at 3000 feet AGL
Weather: no significant weather observed at this time

METAR text: OLBA 191600Z 21008KT 9999 SCT023 SCT180 16/09 Q1016 NOSIG
Conditions at: OLBA (BEIRUT (CIV/MIL), LB) observed 1600 UTC 19 April 2019
Temperature: 16.0°C (61°F)
Dewpoint: 9.0°C (48°F) [RH = 63%]
Pressure (altimeter): 30.00 inches Hg (1016.0 mb)
Winds: from the SSW (210 degrees) at 9 MPH (8 knots; 4.1 m/s)
Visibility: 6 or more miles (10+ km)
Ceiling: at least 12,000 feet AGL
Clouds: scattered clouds at 2300 feet AGL
scattered clouds at 18000 feet AGL
Weather: no significant weather observed at this time

METAR text: OLBA 191500Z 21007KT 9999 SCT023 SCT180 17/08 Q1016 NOSIG
Conditions at: OLBA (BEIRUT (CIV/MIL), LB) observed 1500 UTC 19 April 2019
Temperature: 17.0°C (63°F)
Dewpoint: 8.0°C (46°F) [RH = 55%]
Pressure (altimeter): 30.00 inches Hg (1016.0 mb)
Winds: from the SSW (210 degrees) at 8 MPH (7 knots; 3.6 m/s)
Visibility: 6 or more miles (10+ km)
Ceiling: at least 12,000 feet AGL
Clouds: scattered clouds at 2300 feet AGL
scattered clouds at 18000 feet AGL
Weather: no significant weather observed at this time

METAR text: OLBA 191400Z VRB02KT 9999 SCT023 18/07 Q1016 NOSIG
Conditions at: OLBA (BEIRUT (CIV/MIL), LB) observed 1400 UTC 19 April 2019
Temperature: 18.0°C (64°F)
Dewpoint: 7.0°C (45°F) [RH = 49%]
Pressure (altimeter): 30.00 inches Hg (1016.0 mb)
Winds: variable direction winds at 2 MPH (2 knots; 1.0 m/s)
Visibility: 6 or more miles (10+ km)
Ceiling: at least 12,000 feet AGL
Clouds: scattered clouds at 2300 feet AGL
Weather: no significant weather observed at this time

METAR text: OLBA 191300Z 14006KT 080V170 5000 FEW020CB BKN023 16/10 Q1016 RERA NOSIG
Conditions at: OLBA (BEIRUT (CIV/MIL), LB) observed 1300 UTC 19 April 2019
Temperature: 16.0°C (61°F)
Dewpoint: 10.0°C (50°F) [RH = 68%]
Pressure (altimeter): 30.00 inches Hg (1016.0 mb)
Winds: from the SE (140 degrees) at 7 MPH (6 knots; 3.1 m/s)
Visibility: 3 miles ( 5 km)
Ceiling: 2300 feet AGL
Clouds: few clouds at 2000 feet AGL
broken clouds at 2300 feet AGL
Weather: no significant weather observed at this time

METAR text: OLBA 191200Z 15007KT 120V180 5000 +TSRA FEW020CB BKN023 14/10 Q1017 NOSIG
Conditions at: OLBA (BEIRUT (CIV/MIL), LB) observed 1200 UTC 19 April 2019
Temperature: 14.0°C (57°F)
Dewpoint: 10.0°C (50°F) [RH = 77%]
Pressure (altimeter): 30.03 inches Hg (1017.0 mb)
Winds: from the SSE (150 degrees) at 8 MPH (7 knots; 3.6 m/s)
Visibility: 3 miles ( 5 km)
Ceiling: 2300 feet AGL
Clouds: few clouds at 2000 feet AGL
broken clouds at 2300 feet AGL
Weather: +TSRA  (heavy rain associated with thunderstorm(s))

METAR text: OLBA 191100Z 19005KT 160V220 5000 +TSRA FEW020CB BKN023 13/10 Q1017 RERA
Conditions at: OLBA (BEIRUT (CIV/MIL), LB) observed 1100 UTC 19 April 2019
Temperature: 13.0°C (55°F)
Dewpoint: 10.0°C (50°F) [RH = 82%]
Pressure (altimeter): 30.03 inches Hg (1017.0 mb)
Winds: from the S (190 degrees) at 6 MPH (5 knots; 2.6 m/s)
Visibility: 3 miles ( 5 km)
Ceiling: 2300 feet AGL
Clouds: few clouds at 2000 feet AGL
broken clouds at 2300 feet AGL
Weather: +TSRA  (heavy rain associated with thunderstorm(s))

METAR text: OLBA 191035Z 20020KT 8000 TSRA FEW020CB BKN023 15/09 Q1016
Conditions at: OLBA (BEIRUT (CIV/MIL), LB) observed 1035 UTC 19 April 2019
Temperature: 15.0°C (59°F)
Dewpoint: 9.0°C (48°F) [RH = 67%]
Pressure (altimeter): 30.00 inches Hg (1016.0 mb)
Winds: from the SSW (200 degrees) at 23 MPH (20 knots; 10.3 m/s)
Visibility: 5 miles ( 8 km)
Ceiling: 2300 feet AGL
Clouds: few clouds at 2000 feet AGL
broken clouds at 2300 feet AGL
Weather: TSRA  (rain associated with thunderstorm(s))

METAR text: OLBA 191000Z 25013KT 8000 BKN023 19/08 Q1016 NOSIG
Conditions at: OLBA (BEIRUT (CIV/MIL), LB) observed 1000 UTC 19 April 2019
Temperature: 19.0°C (66°F)
Dewpoint: 8.0°C (46°F) [RH = 49%]
Pressure (altimeter): 30.00 inches Hg (1016.0 mb)
Winds: from the WSW (250 degrees) at 15 MPH (13 knots; 6.7 m/s)
Visibility: 5 miles ( 8 km)
Ceiling: 2300 feet AGL
Clouds: broken clouds at 2300 feet AGL
Weather: no significant weather observed at this time

METAR text: OLBA 190900Z 25012KT 8000 BKN023 16/06 Q1016 NOSIG
Conditions at: OLBA (BEIRUT (CIV/MIL), LB) observed 0900 UTC 19 April 2019
Temperature: 16.0°C (61°F)
Dewpoint: 6.0°C (43°F) [RH = 51%]
Pressure (altimeter): 30.00 inches Hg (1016.0 mb)
Winds: from the WSW (250 degrees) at 14 MPH (12 knots; 6.2 m/s)
Visibility: 5 miles ( 8 km)
Ceiling: 2300 feet AGL
Clouds: broken clouds at 2300 feet AGL
Weather: no significant weather observed at this time

METAR text: OLBA 190800Z 24015KT 8000 FEW020CB BKN023 18/08 Q1017 NOSIG
Conditions at: OLBA (BEIRUT (CIV/MIL), LB) observed 0800 UTC 19 April 2019
Temperature: 18.0°C (64°F)
Dewpoint: 8.0°C (46°F) [RH = 52%]
Pressure (altimeter): 30.03 inches Hg (1017.0 mb)
Winds: from the WSW (240 degrees) at 17 MPH (15 knots; 7.7 m/s)
Visibility: 5 miles ( 8 km)
Ceiling: 2300 feet AGL
Clouds: few clouds at 2000 feet AGL
broken clouds at 2300 feet AGL
Weather: no significant weather observed at this time

METAR text: OLBA 190700Z 24020KT 8000 FEW020CB BKN023 18/09 Q1016 NOSIG
Conditions at: OLBA (BEIRUT (CIV/MIL), LB) observed 0700 UTC 19 April 2019
Temperature: 18.0°C (64°F)
Dewpoint: 9.0°C (48°F) [RH = 56%]
Pressure (altimeter): 30.00 inches Hg (1016.0 mb)
Winds: from the WSW (240 degrees) at 23 MPH (20 knots; 10.3 m/s)
Visibility: 5 miles ( 8 km)
Ceiling: 2300 feet AGL
Clouds: few clouds at 2000 feet AGL
broken clouds at 2300 feet AGL
Weather: no significant weather observed at this time

METAR text: OLBA 190600Z 21016KT 6000 +TSRA FEW020CB BKN023 17/09 Q1014
Conditions at: OLBA (BEIRUT (CIV/MIL), LB) observed 0600 UTC 19 April 2019
Temperature: 17.0°C (63°F)
Dewpoint: 9.0°C (48°F) [RH = 59%]
Pressure (altimeter): 29.94 inches Hg (1014.0 mb)
Winds: from the SSW (210 degrees) at 18 MPH (16 knots; 8.2 m/s)
Visibility: 4 miles ( 6 km)
Ceiling: 2300 feet AGL
Clouds: few clouds at 2000 feet AGL
broken clouds at 2300 feet AGL
Weather: +TSRA  (heavy rain associated with thunderstorm(s))

METAR text: OLBA 190513Z 20012KT 5000 +TSRA FEW020CB BKN023 16/10 Q1015
Conditions at: OLBA (BEIRUT (CIV/MIL), LB) observed 0513 UTC 19 April 2019
Temperature: 16.0°C (61°F)
Dewpoint: 10.0°C (50°F) [RH = 68%]
Pressure (altimeter): 29.97 inches Hg (1015.0 mb)
Winds: from the SSW (200 degrees) at 14 MPH (12 knots; 6.2 m/s)
Visibility: 3 miles ( 5 km)
Ceiling: 2300 feet AGL
Clouds: few clouds at 2000 feet AGL
broken clouds at 2300 feet AGL
Weather: +TSRA  (heavy rain associated with thunderstorm(s))

METAR text: OLBA 190500Z 19011KT 160V220 8000 BKN025 17/08 Q1014 NOSIG
Conditions at: OLBA (BEIRUT (CIV/MIL), LB) observed 0500 UTC 19 April 2019
Temperature: 17.0°C (63°F)
Dewpoint: 8.0°C (46°F) [RH = 55%]
Pressure (altimeter): 29.94 inches Hg (1014.0 mb)
Winds: from the S (190 degrees) at 13 MPH (11 knots; 5.7 m/s)
Visibility: 5 miles ( 8 km)
Ceiling: 2500 feet AGL
Clouds: broken clouds at 2500 feet AGL
Weather: no significant weather observed at this time

METAR text: OLBA 190400Z 19010KT 8000 BKN025 15/09 Q1014 NOSIG
Conditions at: OLBA (BEIRUT (CIV/MIL), LB) observed 0400 UTC 19 April 2019
Temperature: 15.0°C (59°F)
Dewpoint: 9.0°C (48°F) [RH = 67%]
Pressure (altimeter): 29.94 inches Hg (1014.0 mb)
Winds: from the S (190 degrees) at 12 MPH (10 knots; 5.1 m/s)
Visibility: 5 miles ( 8 km)
Ceiling: 2500 feet AGL
Clouds: broken clouds at 2500 feet AGL
Weather: no significant weather observed at this time

METAR text: OLBA 190200Z 16008KT 8000 SCT041 16/07 Q1015 NOSIG
Conditions at: OLBA (BEIRUT (CIV/MIL), LB) observed 0200 UTC 19 April 2019
Temperature: 16.0°C (61°F)
Dewpoint: 7.0°C (45°F) [RH = 55%]
Pressure (altimeter): 29.97 inches Hg (1015.0 mb)
Winds: from the SSE (160 degrees) at 9 MPH (8 knots; 4.1 m/s)
Visibility: 5 miles ( 8 km)
Ceiling: at least 12,000 feet AGL
Clouds: scattered clouds at 4100 feet AGL
Weather: no significant weather observed at this time

METAR text: OLBA 190100Z 16008KT 8000 SCT041 16/08 Q1015 NOSIG
Conditions at: OLBA (BEIRUT (CIV/MIL), LB) observed 0100 UTC 19 April 2019
Temperature: 16.0°C (61°F)
Dewpoint: 8.0°C (46°F) [RH = 59%]
Pressure (altimeter): 29.97 inches Hg (1015.0 mb)
Winds: from the SSE (160 degrees) at 9 MPH (8 knots; 4.1 m/s)
Visibility: 5 miles ( 8 km)
Ceiling: at least 12,000 feet AGL
Clouds: scattered clouds at 4100 feet AGL
Weather: no significant weather observed at this time

METAR text: OLBA 190000Z 16009KT 8000 BKN038 16/08 Q1016 NOSIG
Conditions at: OLBA (BEIRUT (CIV/MIL), LB) observed 0000 UTC 19 April 2019
Temperature: 16.0°C (61°F)
Dewpoint: 8.0°C (46°F) [RH = 59%]
Pressure (altimeter): 30.00 inches Hg (1016.0 mb)
Winds: from the SSE (160 degrees) at 10 MPH (9 knots; 4.6 m/s)
Visibility: 5 miles ( 8 km)
Ceiling: 3800 feet AGL
Clouds: broken clouds at 3800 feet AGL
Weather: no significant weather observed at this time

METAR text: OLBA 182300Z 16009KT 8000 BKN038 16/08 Q1016 NOSIG
Conditions at: OLBA (BEIRUT (CIV/MIL), LB) observed 2300 UTC 18 April 2019
Temperature: 16.0°C (61°F)
Dewpoint: 8.0°C (46°F) [RH = 59%]
Pressure (altimeter): 30.00 inches Hg (1016.0 mb)
Winds: from the SSE (160 degrees) at 10 MPH (9 knots; 4.6 m/s)
Visibility: 5 miles ( 8 km)
Ceiling: 3800 feet AGL
Clouds: broken clouds at 3800 feet AGL
Weather: no significant weather observed at this time

METAR text: OLBA 182200Z 16007KT 8000 SCT038 16/08 Q1017 NOSIG
Conditions at: OLBA (BEIRUT (CIV/MIL), LB) observed 2200 UTC 18 April 2019
Temperature: 16.0°C (61°F)
Dewpoint: 8.0°C (46°F) [RH = 59%]
Pressure (altimeter): 30.03 inches Hg (1017.0 mb)
Winds: from the SSE (160 degrees) at 8 MPH (7 knots; 3.6 m/s)
Visibility: 5 miles ( 8 km)
Ceiling: at least 12,000 feet AGL
Clouds: scattered clouds at 3800 feet AGL
Weather: no significant weather observed at this time

METAR text: OLBA 182100Z 16007KT 8000 SCT042 16/08 Q1017 NOSIG
Conditions at: OLBA (BEIRUT (CIV/MIL), LB) observed 2100 UTC 18 April 2019
Temperature: 16.0°C (61°F)
Dewpoint: 8.0°C (46°F) [RH = 59%]
Pressure (altimeter): 30.03 inches Hg (1017.0 mb)
Winds: from the SSE (160 degrees) at 8 MPH (7 knots; 3.6 m/s)
Visibility: 5 miles ( 8 km)
Ceiling: at least 12,000 feet AGL
Clouds: scattered clouds at 4200 feet AGL
Weather: no significant weather observed at this time

METAR text: OLBA 182000Z 16006KT 8000 SCT039 16/09 Q1017 NOSIG
Conditions at: OLBA (BEIRUT (CIV/MIL), LB) observed 2000 UTC 18 April 2019
Temperature: 16.0°C (61°F)
Dewpoint: 9.0°C (48°F) [RH = 63%]
Pressure (altimeter): 30.03 inches Hg (1017.0 mb)
Winds: from the SSE (160 degrees) at 7 MPH (6 knots; 3.1 m/s)
Visibility: 5 miles ( 8 km)
Ceiling: at least 12,000 feet AGL
Clouds: scattered clouds at 3900 feet AGL
Weather: no significant weather observed at this time

METAR text: OLBA 181900Z 20007KT 8000 BKN036 16/08 Q1018 NOSIG
Conditions at: OLBA (BEIRUT (CIV/MIL), LB) observed 1900 UTC 18 April 2019
Temperature: 16.0°C (61°F)
Dewpoint: 8.0°C (46°F) [RH = 59%]
Pressure (altimeter): 30.06 inches Hg (1018.0 mb)
Winds: from the SSW (200 degrees) at 8 MPH (7 knots; 3.6 m/s)
Visibility: 5 miles ( 8 km)
Ceiling: 3600 feet AGL
Clouds: broken clouds at 3600 feet AGL
Weather: no significant weather observed at this time

METAR text: OLBA 181800Z 23012KT 8000 BKN025 17/09 Q1017 NOSIG
Conditions at: OLBA (BEIRUT (CIV/MIL), LB) observed 1800 UTC 18 April 2019
Temperature: 17.0°C (63°F)
Dewpoint: 9.0°C (48°F) [RH = 59%]
Pressure (altimeter): 30.03 inches Hg (1017.0 mb)
Winds: from the SW (230 degrees) at 14 MPH (12 knots; 6.2 m/s)
Visibility: 5 miles ( 8 km)
Ceiling: 2500 feet AGL
Clouds: broken clouds at 2500 feet AGL
Weather: no significant weather observed at this time

METAR text: OLBA 181700Z 24010KT 8000 BKN027 17/10 Q1017 NOSIG
Conditions at: OLBA (BEIRUT (CIV/MIL), LB) observed 1700 UTC 18 April 2019
Temperature: 17.0°C (63°F)
Dewpoint: 10.0°C (50°F) [RH = 63%]
Pressure (altimeter): 30.03 inches Hg (1017.0 mb)
Winds: from the WSW (240 degrees) at 12 MPH (10 knots; 5.1 m/s)
Visibility: 5 miles ( 8 km)
Ceiling: 2700 feet AGL
Clouds: broken clouds at 2700 feet AGL
Weather: no significant weather observed at this time

METAR text: OLBA 181600Z 23010KT 8000 BKN025 17/10 Q1017 NOSIG
Conditions at: OLBA (BEIRUT (CIV/MIL), LB) observed 1600 UTC 18 April 2019
Temperature: 17.0°C (63°F)
Dewpoint: 10.0°C (50°F) [RH = 63%]
Pressure (altimeter): 30.03 inches Hg (1017.0 mb)
Winds: from the SW (230 degrees) at 12 MPH (10 knots; 5.1 m/s)
Visibility: 5 miles ( 8 km)
Ceiling: 2500 feet AGL
Clouds: broken clouds at 2500 feet AGL
Weather: no significant weather observed at this time

METAR text: OLBA 181500Z 23011KT 8000 DZ BKN025 18/09 Q1017 NOSIG
Conditions at: OLBA (BEIRUT (CIV/MIL), LB) observed 1500 UTC 18 April 2019
Temperature: 18.0°C (64°F)
Dewpoint: 9.0°C (48°F) [RH = 56%]
Pressure (altimeter): 30.03 inches Hg (1017.0 mb)
Winds: from the SW (230 degrees) at 13 MPH (11 knots; 5.7 m/s)
Visibility: 5 miles ( 8 km)
Ceiling: 2500 feet AGL
Clouds: broken clouds at 2500 feet AGL
Weather: DZ  (moderate drizzle)

METAR text: OLBA 181400Z 23014KT 8000 SCT180 19/10 Q1017 NOSIG
Conditions at: OLBA (BEIRUT (CIV/MIL), LB) observed 1400 UTC 18 April 2019
Temperature: 19.0°C (66°F)
Dewpoint: 10.0°C (50°F) [RH = 56%]
Pressure (altimeter): 30.03 inches Hg (1017.0 mb)
Winds: from the SW (230 degrees) at 16 MPH (14 knots; 7.2 m/s)
Visibility: 5 miles ( 8 km)
Ceiling: at least 12,000 feet AGL
Clouds: scattered clouds at 18000 feet AGL
Weather: no significant weather observed at this time

METAR text: OLBA 181200Z 24013KT 8000 SCT180 19/11 Q1017 NOSIG
Conditions at: OLBA (BEIRUT (CIV/MIL), LB) observed 1200 UTC 18 April 2019
Temperature: 19.0°C (66°F)
Dewpoint: 11.0°C (52°F) [RH = 60%]
Pressure (altimeter): 30.03 inches Hg (1017.0 mb)
Winds: from the WSW (240 degrees) at 15 MPH (13 knots; 6.7 m/s)
Visibility: 5 miles ( 8 km)
Ceiling: at least 12,000 feet AGL
Clouds: scattered clouds at 18000 feet AGL
Weather: no significant weather observed at this time

METAR text: OLBA 181100Z 24013KT 8000 NSC 19/09 Q1017 NOSIG
Conditions at: OLBA (BEIRUT (CIV/MIL), LB) observed 1100 UTC 18 April 2019
Temperature: 19.0°C (66°F)
Dewpoint: 9.0°C (48°F) [RH = 52%]
Pressure (altimeter): 30.03 inches Hg (1017.0 mb)
Winds: from the WSW (240 degrees) at 15 MPH (13 knots; 6.7 m/s)
Visibility: 5 miles ( 8 km)
Ceiling: at least 12,000 feet AGL
Clouds: sky clear below 12,000 feet AGL
Weather: no significant weather observed at this time

METAR text: OLBA 181000Z 23013KT 8000 FEW032 19/10 Q1017 NOSIG
Conditions at: OLBA (BEIRUT (CIV/MIL), LB) observed 1000 UTC 18 April 2019
Temperature: 19.0°C (66°F)
Dewpoint: 10.0°C (50°F) [RH = 56%]
Pressure (altimeter): 30.03 inches Hg (1017.0 mb)
Winds: from the SW (230 degrees) at 15 MPH (13 knots; 6.7 m/s)
Visibility: 5 miles ( 8 km)
Ceiling: at least 12,000 feet AGL
Clouds: few clouds at 3200 feet AGL
Weather: no significant weather observed at this time

METAR text: OLBA 180900Z 23012KT 8000 FEW032 19/10 Q1018 NOSIG
Conditions at: OLBA (BEIRUT (CIV/MIL), LB) observed 0900 UTC 18 April 2019
Temperature: 19.0°C (66°F)
Dewpoint: 10.0°C (50°F) [RH = 56%]
Pressure (altimeter): 30.06 inches Hg (1018.0 mb)
Winds: from the SW (230 degrees) at 14 MPH (12 knots; 6.2 m/s)
Visibility: 5 miles ( 8 km)
Ceiling: at least 12,000 feet AGL
Clouds: few clouds at 3200 feet AGL
Weather: no significant weather observed at this time

METAR text: OLBA 180800Z 22012KT 8000 BKN026 19/11 Q1018 NOSIG
Conditions at: OLBA (BEIRUT (CIV/MIL), LB) observed 0800 UTC 18 April 2019
Temperature: 19.0°C (66°F)
Dewpoint: 11.0°C (52°F) [RH = 60%]
Pressure (altimeter): 30.06 inches Hg (1018.0 mb)
Winds: from the SW (220 degrees) at 14 MPH (12 knots; 6.2 m/s)
Visibility: 5 miles ( 8 km)
Ceiling: 2600 feet AGL
Clouds: broken clouds at 2600 feet AGL
Weather: no significant weather observed at this time

METAR text: OLBA 180700Z 22011KT 8000 -RA BKN026 17/10 Q1018 NOSIG
Conditions at: OLBA (BEIRUT (CIV/MIL), LB) observed 0700 UTC 18 April 2019
Temperature: 17.0°C (63°F)
Dewpoint: 10.0°C (50°F) [RH = 63%]
Pressure (altimeter): 30.06 inches Hg (1018.0 mb)
Winds: from the SW (220 degrees) at 13 MPH (11 knots; 5.7 m/s)
Visibility: 5 miles ( 8 km)
Ceiling: 2600 feet AGL
Clouds: broken clouds at 2600 feet AGL
Weather: -RA  (light rain)

Forecast for: OLBA (BEIRUT (CIV/MIL), LB)
Text: TAF OLBA 191600Z 1918/2024 20015G25KT 8000 FEW020CB BKN023
Forecast period: 1800 UTC 19 April 2019 to 0600 UTC 20 April 2019
Forecast type: FROM: standard forecast or significant change
Winds: from the SSW (200 degrees) at 17 MPH (15 knots; 7.7 m/s)
gusting to 29 MPH (25 knots; 12.9 m/s)
Visibility: 5 miles (8 km)
Ceiling: 2300 feet AGL
Clouds: few clouds at 2000 feet AGL
broken clouds at 2300 feet AGL
Weather: no significant weather forecast for this period
Text: TEMPO 1918/2003 5000 TSRA
Forecast period: 1800 UTC 19 April 2019 to 0300 UTC 20 April 2019
Forecast type: TEMPORARY: The following changes expected for less than half the time period
Visibility: 3 miles (5 km)
Ceiling: unknown
Clouds: missing
Weather: TSRA  (rain associated with thunderstorm(s))
Text: BECMG 2006/2009 21015G30KT
Forecast period: 0600 UTC 20 April 2019 to 0000 UTC 21 April 2019
Forecast type: BECOMING: Conditions expected to become as follows by 0900 UTC 20 April 2019
Winds: from the SSW (210 degrees) at 17 MPH (15 knots; 7.7 m/s)
gusting to 34 MPH (30 knots; 15.4 m/s)
Visibility: 5 miles (8 km)
Ceiling: 2300 feet AGL
Clouds: few clouds at 2000 feet AGL
broken clouds at 2300 feet AGL
Weather: no significant weather forecast for this period
Text: TEMPO 2006/2024 21020G35KT 5000 -RA BKN026
Forecast period: 0600 UTC 20 April 2019 to 0000 UTC 21 April 2019
Forecast type: TEMPORARY: The following changes expected for less than half the time period
Winds: from the SSW (210 degrees) at 23 MPH (20 knots; 10.3 m/s)
gusting to 40 MPH (35 knots; 18.0 m/s)
Visibility: 3 miles (5 km)
Ceiling: 2600 feet AGL
Clouds: broken clouds at 2600 feet AGL
Weather: -RA  (light rain)